Time;durP1;ratioP1;P1;durP2;ratioP2;P2;SDS_P1;SDS_P2;PMS_P1;PMS_P2;Temp;Humidity;BMP_temperature;BMP_pressure;BME280_temperature;BME280_humidity;BME280_pressure;Samples;Min_cycle;Max_cycle;Signal;HPM_P1;HPM_P2
2022/06/25 00:02:24;;;;;;;9.43;7.95;;;;;;;20.94;60.71;100833.34;4957287;28;20034;-86
2022/06/25 00:07:33;;;;;;;12.13;8.60;;;;;;;20.73;61.01;100822.13;4962341;28;20538;-86
2022/06/25 00:09:58;;;;;;;10.82;8.25;;;;;;;20.78;61.20;100835.69;4941419;28;20034;-85
2022/06/25 00:12:33;;;;;;;10.20;8.55;;;;;;;20.60;60.73;100815.31;4957570;28;20089;-85
2022/06/25 00:15:00;;;;;;;9.45;8.45;;;;;;;20.61;60.69;100821.41;4959804;28;20105;-86
2022/06/25 00:17:26;;;;;;;12.40;8.60;;;;;;;20.57;60.99;100826.13;4958324;28;20073;-85
2022/06/25 00:19:51;;;;;;;10.82;9.00;;;;;;;20.43;61.06;100829.09;4993981;28;20444;-86
2022/06/25 00:22:17;;;;;;;12.75;8.40;;;;;;;20.52;61.20;100849.31;4960565;28;20049;-86
2022/06/25 00:24:42;;;;;;;9.70;8.15;;;;;;;20.57;61.08;100859.44;4977178;28;20030;-86
2022/06/25 00:27:08;;;;;;;10.55;8.18;;;;;;;20.49;61.08;100860.13;4994139;28;20542;-85
2022/06/25 00:29:33;;;;;;;12.25;8.30;;;;;;;20.47;60.79;100851.53;4960599;28;20399;-85
2022/06/25 00:31:59;;;;;;;10.90;8.52;;;;;;;20.38;61.06;100841.78;4960354;28;20055;-86
2022/06/25 00:34:26;;;;;;;11.40;8.25;;;;;;;20.32;61.33;100843.13;4944182;28;20053;-86
2022/06/25 00:36:52;;;;;;;11.73;8.00;;;;;;;20.26;61.39;100833.19;4945002;28;20049;-86
2022/06/25 00:39:17;;;;;;;9.43;8.35;;;;;;;20.43;61.26;100846.66;4960305;28;20045;-85
2022/06/25 00:41:43;;;;;;;10.77;8.00;;;;;;;20.44;60.97;100861.47;4960487;28;20084;-85
2022/06/25 00:44:09;;;;;;;9.13;7.78;;;;;;;20.29;61.04;100843.41;4944260;28;20121;-85
2022/06/25 00:46:34;;;;;;;9.07;8.10;;;;;;;20.23;61.22;100854.44;4976174;28;20156;-86
2022/06/25 00:49:00;;;;;;;11.55;8.63;;;;;;;20.23;61.42;100853.59;4943914;28;20072;-85
2022/06/25 00:51:27;;;;;;;10.50;8.05;;;;;;;20.02;61.68;100835.25;4959801;28;20034;-85
2022/06/25 00:53:52;;;;;;;12.30;8.32;;;;;;;20.14;61.60;100857.84;4959883;28;20042;-85
2022/06/25 00:56:17;;;;;;;11.73;8.65;;;;;;;20.11;61.68;100847.59;4960081;28;20034;-86
2022/06/25 00:58:44;;;;;;;10.23;8.45;;;;;;;20.09;61.35;100841.66;4960064;28;20562;-85
2022/06/25 01:01:09;;;;;;;11.63;8.32;;;;;;;20.18;61.37;100851.38;4960147;28;20404;-86
2022/06/25 01:03:36;;;;;;;9.32;7.97;;;;;;;20.16;61.51;100840.19;4943536;28;20514;-85
2022/06/25 01:06:01;;;;;;;11.27;8.23;;;;;;;20.20;61.20;100833.69;4959818;28;20038;-86
2022/06/25 01:08:27;;;;;;;10.38;8.02;;;;;;;20.26;60.91;100833.19;4943945;28;20097;-86
2022/06/25 01:10:52;;;;;;;10.98;8.55;;;;;;;20.28;61.24;100830.41;4959665;28;20117;-86
2022/06/25 01:13:21;;;;;;;9.88;7.68;;;;;;;20.28;61.31;100815.47;4959670;28;20134;-85
2022/06/25 01:15:47;;;;;;;9.90;7.88;;;;;;;20.43;61.07;100825.63;4943898;28;20468;-85
2022/06/25 01:18:13;;;;;;;9.85;8.23;;;;;;;20.34;60.99;100814.09;4959805;28;20029;-86
2022/06/25 01:20:38;;;;;;;11.60;8.13;;;;;;;20.33;61.00;100817.69;4959553;28;20507;-85
2022/06/25 01:23:04;;;;;;;9.27;7.70;;;;;;;20.39;61.14;100840.81;4959458;28;20027;-86
2022/06/25 01:25:36;;;;;;;15.18;8.18;;;;;;;20.37;61.09;100841.94;4959503;28;20035;-85
2022/06/25 01:28:03;;;;;;;13.80;8.07;;;;;;;20.24;61.21;100814.06;4959672;28;20033;-86
2022/06/25 01:30:28;;;;;;;12.77;7.68;;;;;;;20.38;60.94;100830.44;4959685;28;20062;-86
2022/06/25 01:32:54;;;;;;;11.65;8.50;;;;;;;20.30;61.22;100833.72;4943109;28;20069;-86
2022/06/25 01:35:19;;;;;;;10.48;7.97;;;;;;;20.38;61.22;100835.69;4959736;28;20080;-86
2022/06/25 01:37:45;;;;;;;10.98;7.70;;;;;;;20.39;60.91;100821.59;4959389;28;20385;-85
2022/06/25 01:40:10;;;;;;;11.02;8.00;;;;;;;20.42;60.71;100832.66;4959215;28;20033;-86
2022/06/25 01:45:20;;;;;;;11.70;8.40;;;;;;;20.55;60.77;100827.19;4977728;28;20060;-85
2022/06/25 01:47:45;;;;;;;9.55;7.90;;;;;;;20.44;60.83;100809.72;4958922;28;20472;-86
2022/06/25 01:50:11;;;;;;;12.63;8.13;;;;;;;20.43;60.89;100808.06;4959091;28;20074;-84
2022/06/25 01:52:37;;;;;;;9.98;8.38;;;;;;;20.39;60.75;100801.41;4958990;28;20037;-86
2022/06/25 01:55:02;;;;;;;10.38;7.63;;;;;;;20.49;60.56;100817.22;4959118;28;20468;-85
2022/06/25 01:57:28;;;;;;;11.88;8.40;;;;;;;20.32;60.69;100793.22;4958930;28;20019;-85
2022/06/25 01:59:53;;;;;;;11.75;8.25;;;;;;;20.54;60.61;100826.34;4975024;28;20114;-86
2022/06/25 02:02:19;;;;;;;10.85;8.27;;;;;;;20.59;60.60;100833.84;4958772;28;20030;-86
2022/06/25 02:04:45;;;;;;;9.00;7.72;;;;;;;20.60;61.14;100838.16;4958878;28;20527;-86
2022/06/25 02:07:10;;;;;;;10.77;7.57;;;;;;;20.60;60.99;100846.03;4958675;28;20026;-86
2022/06/25 02:09:36;;;;;;;11.77;8.02;;;;;;;20.43;61.60;100836.97;4958545;28;20065;-85
2022/06/25 02:12:05;;;;;;;9.35;7.53;;;;;;;20.53;61.61;100858.88;4958495;28;20165;-86
2022/06/25 02:14:30;;;;;;;12.88;8.20;;;;;;;20.57;61.36;100868.16;4958878;28;20084;-86
2022/06/25 02:16:56;;;;;;;13.43;8.60;;;;;;;20.57;61.38;100860.28;4958664;28;20030;-86
2022/06/25 02:19:21;;;;;;;11.60;8.13;;;;;;;20.51;61.10;100854.72;4958642;28;20030;-86
2022/06/25 02:21:47;;;;;;;14.15;8.45;;;;;;;20.55;61.66;100864.84;4991828;28;20543;-86
2022/06/25 02:24:12;;;;;;;10.00;8.48;;;;;;;20.52;61.81;100859.00;4974646;28;20026;-85
2022/06/25 02:26:38;;;;;;;12.70;8.13;;;;;;;20.62;61.92;100859.88;4942493;28;20030;-86
2022/06/25 02:29:03;;;;;;;10.65;8.32;;;;;;;20.62;61.73;100865.13;4958117;28;20026;-86
2022/06/25 02:31:29;;;;;;;10.80;7.80;;;;;;;20.62;61.48;100849.34;4942532;28;20034;-86
2022/06/25 02:33:55;;;;;;;8.98;8.07;;;;;;;20.65;61.59;100864.88;4958508;28;20570;-85
2022/06/25 02:36:20;;;;;;;8.85;7.95;;;;;;;20.61;61.53;100873.97;4974435;28;20030;-86
2022/06/25 02:38:46;;;;;;;9.63;8.10;;;;;;;20.60;61.28;100880.19;4974095;28;20026;-85
2022/06/25 02:41:11;;;;;;;9.88;8.57;;;;;;;20.49;61.64;100877.69;4957733;28;20061;-86
2022/06/25 02:43:37;;;;;;;11.32;7.72;;;;;;;20.41;61.73;100874.84;4957835;28;20023;-85
2022/06/25 02:46:02;;;;;;;11.35;8.05;;;;;;;20.28;62.04;100854.88;4958074;28;20038;-85
2022/06/25 02:48:28;;;;;;;10.15;7.88;;;;;;;20.32;62.26;100858.91;4958196;28;20030;-86
2022/06/25 02:50:53;;;;;;;8.95;8.02;;;;;;;20.31;61.76;100859.88;4958026;28;20484;-85
2022/06/25 02:53:19;;;;;;;13.32;8.80;;;;;;;20.45;62.10;100889.41;4958165;28;20033;-86
2022/06/25 03:01:12;;;;;;;10.20;8.40;;;;;;;20.48;61.22;100887.34;4962958;28;20049;-85
2022/06/25 03:03:38;;;;;;;9.73;7.90;;;;;;;20.44;61.96;100887.75;4942001;28;20034;-85
2022/06/25 03:06:03;;;;;;;11.93;8.05;;;;;;;20.44;61.79;100887.75;4942032;28;20030;-86
2022/06/25 03:08:29;;;;;;;11.48;8.60;;;;;;;20.45;61.72;100892.03;4957956;28;20061;-85
2022/06/25 03:10:54;;;;;;;12.27;9.02;;;;;;;20.44;61.89;100898.25;4974105;28;20026;-86
2022/06/25 03:13:20;;;;;;;11.75;9.50;;;;;;;20.43;61.55;100901.84;4957453;28;20528;-85
2022/06/25 03:15:45;;;;;;;18.33;11.50;;;;;;;20.47;61.92;100911.97;4973731;28;20027;-85
2022/06/25 03:18:11;;;;;;;17.33;11.55;;;;;;;20.43;61.49;100904.47;4941852;28;20053;-85
2022/06/25 03:20:36;;;;;;;14.27;9.95;;;;;;;20.41;61.29;100912.47;4957777;28;20062;-86
2022/06/25 03:23:02;;;;;;;15.40;10.32;;;;;;;20.37;61.84;100918.13;4973939;28;20408;-86
2022/06/25 03:25:28;;;;;;;15.52;11.32;;;;;;;20.43;62.47;100914.97;4957714;28;20065;-86
2022/06/25 03:27:53;;;;;;;14.32;10.77;;;;;;;20.42;62.40;100913.28;4957440;28;20034;-86
2022/06/25 03:30:19;;;;;;;13.15;10.10;;;;;;;20.46;62.14;100906.84;4958065;28;20034;-85
2022/06/25 03:32:44;;;;;;;13.70;10.00;;;;;;;20.56;61.94;100908.56;4958164;28;20356;-87
2022/06/25 03:35:10;;;;;;;15.65;10.73;;;;;;;20.47;61.60;100893.59;4957850;28;20530;-86
2022/06/25 03:37:35;;;;;;;14.27;10.25;;;;;;;20.61;61.92;100910.78;4974035;28;20030;-85
2022/06/25 03:40:01;;;;;;;13.32;10.07;;;;;;;20.60;62.09;100915.19;4957658;28;20058;-85
2022/06/25 03:42:26;;;;;;;12.50;10.30;;;;;;;20.68;61.83;100921.59;4957091;28;20110;-86
2022/06/25 03:44:52;;;;;;;11.32;10.05;;;;;;;20.72;61.41;100917.72;4957672;28;20026;-85
2022/06/25 03:47:17;;;;;;;14.13;10.10;;;;;;;20.80;61.08;100916.09;4957661;28;20104;-86
2022/06/25 03:49:43;;;;;;;18.58;10.13;;;;;;;20.82;61.78;100910.69;4973424;28;20164;-85
2022/06/25 03:52:08;;;;;;;14.55;10.05;;;;;;;20.91;61.72;100917.78;4943776;28;20118;-85
2022/06/25 03:54:35;;;;;;;15.55;9.82;;;;;;;20.94;61.41;100924.56;4945323;28;20438;-86
2022/06/25 03:57:01;;;;;;;12.20;10.15;;;;;;;20.97;62.26;100932.22;4961434;28;20854;-85
2022/06/25 03:59:28;;;;;;;12.25;10.05;;;;;;;21.04;61.96;100938.56;4961242;28;20118;-86
2022/06/25 04:01:54;;;;;;;14.00;10.00;;;;;;;21.09;60.80;100936.38;4961365;28;20030;-86
2022/06/25 04:04:20;;;;;;;15.57;9.93;;;;;;;21.17;60.53;100944.44;4961148;28;20114;-86
2022/06/25 04:06:45;;;;;;;14.27;10.20;;;;;;;21.22;60.45;100947.47;4961375;28;20472;-86
2022/06/25 04:09:11;;;;;;;12.20;9.80;;;;;;;21.27;60.21;100945.31;4977139;28;20510;-85
2022/06/25 04:11:37;;;;;;;10.82;9.60;;;;;;;21.31;59.28;100956.38;4976646;28;20117;-85
2022/06/25 04:14:03;;;;;;;13.88;9.25;;;;;;;21.37;59.28;100940.91;4944916;28;20116;-85
2022/06/25 04:16:28;;;;;;;15.90;9.75;;;;;;;21.39;59.06;100943.38;4960886;28;20038;-86
2022/06/25 04:18:54;;;;;;;15.50;10.02;;;;;;;21.35;59.06;100937.56;4960812;28;20022;-85
2022/06/25 04:21:19;;;;;;;14.18;9.27;;;;;;;21.59;58.52;100947.69;4944291;28;20034;-85
2022/06/25 04:23:45;;;;;;;11.18;9.27;;;;;;;21.61;57.96;100948.38;4976519;28;20034;-86
2022/06/25 04:26:10;;;;;;;12.07;9.20;;;;;;;21.65;57.75;100936.63;4960518;28;20023;-85
2022/06/25 04:31:20;;;;;;;12.05;9.52;;;;;;;21.72;57.99;100947.41;4965498;28;20053;-86
2022/06/25 04:33:45;;;;;;;11.07;9.88;;;;;;;21.80;58.32;100960.72;4976644;28;20480;-85
2022/06/25 04:36:11;;;;;;;12.43;9.70;;;;;;;21.86;57.70;100968.06;4976632;28;20069;-86
2022/06/25 04:38:36;;;;;;;15.35;10.18;;;;;;;21.73;57.51;100954.34;4960376;28;20037;-85
2022/06/25 04:41:02;;;;;;;15.15;12.13;;;;;;;21.67;61.08;100953.09;4960069;28;20035;-85
2022/06/25 04:43:27;;;;;;;20.88;12.63;;;;;;;21.68;61.70;100951.28;4976273;28;20058;-85
2022/06/25 04:45:53;;;;;;;17.73;12.27;;;;;;;21.69;62.52;100966.13;4960324;28;20535;-85
2022/06/25 04:48:18;;;;;;;16.63;13.30;;;;;;;21.63;62.31;100956.13;4960261;28;20069;-86
2022/06/25 04:50:44;;;;;;;17.27;13.10;;;;;;;21.51;62.10;100930.91;4960334;28;20549;-86
2022/06/25 04:53:10;;;;;;;18.90;13.27;;;;;;;21.68;62.15;100951.28;4944202;28;20587;-86
2022/06/25 04:55:35;;;;;;;14.07;12.38;;;;;;;21.71;62.10;100953.66;4975716;28;20045;-85
2022/06/25 04:58:01;;;;;;;21.23;12.23;;;;;;;21.63;62.04;100940.34;4960430;28;20029;-86
2022/06/25 05:00:27;;;;;;;15.00;12.77;;;;;;;21.75;62.21;100955.03;4960174;28;20045;-85
2022/06/25 05:02:52;;;;;;;14.98;12.77;;;;;;;21.74;61.71;100969.19;4975524;28;20488;-85
2022/06/25 05:05:18;;;;;;;18.40;13.93;;;;;;;21.68;61.83;100946.03;4944031;28;20026;-86
2022/06/25 05:07:43;;;;;;;18.20;12.80;;;;;;;21.84;61.15;100962.13;4959780;28;20177;-85
2022/06/25 05:10:09;;;;;;;14.60;12.45;;;;;;;21.81;61.02;100959.75;4943538;28;20035;-86
2022/06/25 05:15:18;;;;;;;15.27;12.27;;;;;;;21.77;59.50;100937.31;4986183;28;20069;-86
2022/06/25 05:17:44;;;;;;;15.57;11.35;;;;;;;22.12;58.53;100976.22;4973819;28;20031;-85
2022/06/25 05:20:10;;;;;;;15.43;11.20;;;;;;;22.07;58.66;100967.09;4972931;28;20030;-85
2022/06/25 05:22:35;;;;;;;12.48;10.20;;;;;;;22.02;58.22;100962.22;4972357;28;20050;-85
2022/06/25 05:25:01;;;;;;;13.63;10.10;;;;;;;22.03;57.57;100943.66;4972156;28;20066;-86
2022/06/25 05:27:27;;;;;;;17.60;10.10;;;;;;;22.23;56.72;100970.81;4972093;28;20066;-85
2022/06/25 05:29:53;;;;;;;14.68;10.45;;;;;;;22.22;56.49;100957.78;4972260;28;20484;-85
2022/06/25 05:32:19;;;;;;;14.02;10.90;;;;;;;22.43;56.83;100965.50;4972034;28;20031;-85
2022/06/25 05:34:44;;;;;;;12.85;11.10;;;;;;;22.45;57.00;100958.28;4971990;28;20054;-86
2022/06/25 05:37:11;;;;;;;13.70;10.75;;;;;;;22.45;56.37;100959.09;4972027;28;20034;-85
2022/06/25 05:39:36;;;;;;;17.20;11.50;;;;;;;22.51;56.46;100953.25;4971577;28;20475;-85
2022/06/25 05:42:03;;;;;;;16.60;10.70;;;;;;;22.56;56.56;100966.84;4972090;28;20178;-85
2022/06/25 05:44:29;;;;;;;13.30;10.77;;;;;;;22.70;55.62;100984.00;4972262;28;20113;-86
2022/06/25 05:46:54;;;;;;;15.65;11.48;;;;;;;22.79;55.59;100987.56;4971899;28;20054;-85
2022/06/25 05:49:20;;;;;;;15.98;11.07;;;;;;;22.86;54.85;100984.25;4971765;28;20026;-85
2022/06/25 05:51:45;;;;;;;12.25;10.93;;;;;;;22.98;55.28;100976.97;4971925;28;20480;-85
2022/06/25 05:54:11;;;;;;;16.00;11.57;;;;;;;23.15;54.04;100981.44;4971553;28;20105;-86
2022/06/25 05:56:36;;;;;;;15.60;10.88;;;;;;;23.14;53.03;100985.06;4971547;28;20062;-86
2022/06/25 05:59:02;;;;;;;13.18;11.38;;;;;;;23.22;53.71;100983.50;4972972;28;20042;-85
2022/06/25 06:01:27;;;;;;;17.63;13.63;;;;;;;23.02;54.05;100974.88;4987665;28;20118;-85
2022/06/25 06:03:53;;;;;;;19.95;13.75;;;;;;;23.13;54.75;100978.13;4971685;28;20392;-86
2022/06/25 06:06:18;;;;;;;18.52;14.65;;;;;;;23.20;53.82;100986.28;4971714;28;20472;-86
2022/06/25 06:08:44;;;;;;;17.63;13.48;;;;;;;23.23;54.39;100985.16;4987399;28;20058;-85
2022/06/25 06:11:09;;;;;;;18.27;13.80;;;;;;;23.35;54.28;100976.88;4972750;28;20491;-85
2022/06/25 06:13:35;;;;;;;19.25;13.50;;;;;;;23.53;53.76;100979.53;4971302;28;20061;-85
2022/06/25 06:16:00;;;;;;;21.92;13.52;;;;;;;23.66;53.60;100976.56;4970580;28;20038;-85
2022/06/25 06:18:26;;;;;;;16.65;13.52;;;;;;;23.71;52.73;100974.31;4971503;28;20034;-85
2022/06/25 06:20:51;;;;;;;18.42;13.25;;;;;;;23.91;53.16;100996.09;4971143;28;20058;-86
2022/06/25 06:23:17;;;;;;;17.85;13.00;;;;;;;23.88;52.22;100976.06;4970866;28;20030;-85
2022/06/25 06:25:42;;;;;;;16.08;13.48;;;;;;;23.99;52.46;100989.06;4971049;28;20026;-86
2022/06/25 06:28:08;;;;;;;20.38;13.70;;;;;;;24.15;52.55;100998.09;4971325;28;20031;-86
2022/06/25 06:30:33;;;;;;;19.10;14.73;;;;;;;24.19;51.96;100976.50;4971179;28;20035;-85
2022/06/25 06:32:59;;;;;;;19.17;14.60;;;;;;;24.24;52.38;100970.72;4971197;28;20046;-86
2022/06/25 06:35:24;;;;;;;17.17;13.50;;;;;;;24.34;51.01;100992.66;4987048;28;20456;-85
2022/06/25 06:37:50;;;;;;;14.52;12.98;;;;;;;24.28;50.17;100991.41;4971151;28;20069;-86
2022/06/25 06:40:15;;;;;;;17.00;13.70;;;;;;;24.35;50.86;100989.00;4986946;28;20061;-86
2022/06/25 06:42:41;;;;;;;19.73;14.30;;;;;;;24.44;51.19;100976.66;4971020;28;20030;-86
2022/06/25 06:45:07;;;;;;;19.13;14.07;;;;;;;24.71;51.13;100984.44;4971071;28;20085;-86
2022/06/25 06:47:32;;;;;;;18.63;14.50;;;;;;;24.72;50.35;100980.78;4970899;28;20061;-86
2022/06/25 06:49:58;;;;;;;18.92;14.45;;;;;;;24.77;50.37;100967.91;4986809;28;20477;-85
2022/06/25 06:52:26;;;;;;;20.08;13.65;;;;;;;24.91;49.87;100976.25;4971140;28;20488;-84
2022/06/25 06:54:52;;;;;;;18.35;15.50;;;;;;;24.86;51.37;100956.38;4971131;28;20082;-85
2022/06/25 06:57:17;;;;;;;19.40;15.23;;;;;;;24.98;51.52;100971.97;4970804;28;20023;-85
2022/06/25 06:59:43;;;;;;;20.27;15.55;;;;;;;25.03;51.01;100972.34;4970706;28;20041;-85
2022/06/25 07:02:08;;;;;;;21.50;15.02;;;;;;;25.17;50.44;100974.38;4970823;28;20027;-86
2022/06/25 07:04:34;;;;;;;19.23;16.05;;;;;;;25.26;50.56;100972.56;4986550;28;20150;-85
2022/06/25 07:06:59;;;;;;;18.08;14.57;;;;;;;25.30;50.70;100961.50;4971038;28;20034;-85
2022/06/25 07:09:25;;;;;;;19.38;15.23;;;;;;;25.34;50.34;100957.53;4970715;28;20146;-85
2022/06/25 07:11:51;;;;;;;16.25;14.55;;;;;;;25.52;49.28;100969.81;4973541;28;20108;-85
2022/06/25 07:14:16;;;;;;;20.88;14.25;;;;;;;25.39;49.26;100957.88;4941831;28;20026;-85
2022/06/25 07:16:42;;;;;;;17.92;14.52;;;;;;;25.67;49.08;100970.84;4973779;28;20117;-85
2022/06/25 07:19:10;;;;;;;19.33;14.70;;;;;;;25.78;48.43;100973.19;4957506;28;20061;-84
2022/06/25 07:21:35;;;;;;;17.50;13.63;;;;;;;25.93;47.26;100968.03;4957941;28;20022;-85
2022/06/25 07:24:01;;;;;;;15.50;13.55;;;;;;;25.93;47.20;100965.38;4973520;28;20420;-85
2022/06/25 07:26:26;;;;;;;17.98;14.30;;;;;;;26.13;46.87;100977.28;4958575;28;20495;-85
2022/06/25 07:28:53;;;;;;;16.42;13.90;;;;;;;26.26;46.43;100966.19;4961638;28;20037;-85
2022/06/25 07:31:18;;;;;;;18.08;13.88;;;;;;;26.29;45.97;100960.53;4961718;28;20081;-86
2022/06/25 07:33:44;;;;;;;15.75;13.25;;;;;;;26.11;46.27;100938.69;4977127;28;20454;-85
2022/06/25 07:36:09;;;;;;;14.60;13.10;;;;;;;26.33;45.82;100969.78;4961618;28;20621;-85
2022/06/25 07:38:35;;;;;;;14.05;12.55;;;;;;;26.55;45.78;100981.56;4961419;28;20034;-85
2022/06/25 07:41:01;;;;;;;15.00;12.85;;;;;;;26.57;45.18;100974.25;4945512;28;20093;-85
2022/06/25 07:43:27;;;;;;;14.98;12.35;;;;;;;26.71;44.98;100978.00;4961273;28;20058;-86
2022/06/25 07:45:54;;;;;;;13.63;12.13;;;;;;;26.69;44.14;100972.06;4945415;28;20034;-86
2022/06/25 07:48:19;;;;;;;15.13;12.05;;;;;;;26.87;44.27;100985.94;4945092;28;20041;-85
2022/06/25 07:53:29;;;;;;;15.52;12.07;;;;;;;27.15;44.05;100984.50;4966174;28;20089;-85
2022/06/25 07:55:55;;;;;;;14.13;12.70;;;;;;;27.09;43.88;100957.81;4977346;28;20034;-85
2022/06/25 07:58:20;;;;;;;17.42;12.43;;;;;;;27.23;43.96;100990.75;4977099;28;20092;-84
2022/06/25 08:00:46;;;;;;;13.65;12.20;;;;;;;27.50;43.77;100987.59;4961463;28;20538;-86
2022/06/25 08:03:11;;;;;;;14.23;12.27;;;;;;;27.77;42.40;100996.06;4960601;28;20105;-86
2022/06/25 08:05:37;;;;;;;14.18;12.38;;;;;;;27.92;41.96;100983.63;4961025;28;20038;-85
2022/06/25 08:08:03;;;;;;;15.80;12.68;;;;;;;28.05;41.74;100989.19;4960867;28;20151;-85
2022/06/25 08:10:28;;;;;;;16.60;11.85;;;;;;;28.19;41.74;100999.00;4960660;28;20037;-85
2022/06/25 08:12:54;;;;;;;14.10;12.60;;;;;;;28.17;41.18;100965.63;4960689;28;20081;-84
2022/06/25 08:15:20;;;;;;;14.20;12.38;;;;;;;28.35;40.85;100992.75;4976983;28;20476;-85
2022/06/25 08:17:46;;;;;;;14.23;12.75;;;;;;;28.42;40.89;100983.03;4960754;28;20038;-85
2022/06/25 08:20:11;;;;;;;18.15;13.25;;;;;;;28.58;41.72;100987.34;4961110;28;20036;-86
2022/06/25 08:22:37;;;;;;;18.10;13.30;;;;;;;28.66;41.10;100981.94;4960307;28;20471;-85
2022/06/25 08:25:04;;;;;;;15.75;12.93;;;;;;;28.86;40.69;100977.69;4976873;28;20038;-85
2022/06/25 08:27:31;;;;;;;15.55;12.55;;;;;;;29.11;39.29;100983.56;4960648;28;20157;-86
2022/06/25 08:29:57;;;;;;;23.35;12.30;;;;;;;29.27;39.43;100966.50;4961183;28;20072;-86
2022/06/25 08:32:23;;;;;;;16.88;13.00;;;;;;;29.39;39.41;100959.63;4960584;28;20407;-84
2022/06/25 08:34:48;;;;;;;16.40;12.95;;;;;;;29.46;39.17;100970.38;4960488;28;20041;-85
2022/06/25 08:37:14;;;;;;;13.85;12.07;;;;;;;29.69;39.17;100978.19;4960461;28;20484;-86
2022/06/25 08:39:39;;;;;;;16.08;13.13;;;;;;;29.82;38.19;100981.00;4959409;28;20072;-85
2022/06/25 08:42:05;;;;;;;13.98;12.07;;;;;;;29.86;38.31;100973.44;4960364;28;20114;-85
2022/06/25 08:44:30;;;;;;;16.13;12.95;;;;;;;29.93;37.46;100971.66;4944372;28;20042;-85
2022/06/25 08:46:58;;;;;;;16.88;13.18;;;;;;;29.99;38.09;100968.22;4943839;28;20034;-85
2022/06/25 08:49:23;;;;;;;14.20;12.73;;;;;;;29.93;37.73;100948.47;4960522;28;20037;-85
2022/06/25 08:51:49;;;;;;;16.42;12.23;;;;;;;30.11;38.13;100968.53;4960492;28;20034;-86
2022/06/25 08:54:15;;;;;;;14.55;12.15;;;;;;;30.37;38.14;100968.69;4976575;28;20069;-85
2022/06/25 08:56:41;;;;;;;16.02;12.73;;;;;;;30.52;37.29;100966.72;4960038;28;20030;-85
2022/06/25 08:59:07;;;;;;;15.85;12.48;;;;;;;30.62;37.63;100965.56;4976158;28;20022;-85
2022/06/25 09:01:33;;;;;;;14.27;12.63;;;;;;;30.70;36.39;100968.09;4959811;28;20086;-85
2022/06/25 09:03:58;;;;;;;17.33;13.07;;;;;;;30.78;36.78;100967.94;4960088;28;20065;-85
2022/06/25 09:06:24;;;;;;;13.45;12.25;;;;;;;30.75;36.58;100952.28;4993328;28;20030;-85
2022/06/25 09:09:11;;;;;;;15.82;12.70;;;;;;;31.09;36.76;100968.25;4975966;28;20026;-85
2022/06/25 09:11:57;;;;;;;17.05;12.77;;;;;;;30.60;36.20;100952.41;4975536;28;20037;-85
2022/06/25 09:14:29;;;;;;;13.68;11.52;;;;;;;30.76;35.66;100960.09;4959792;28;20050;-85
2022/06/25 09:17:06;;;;;;;13.85;12.38;;;;;;;30.89;35.75;100959.34;4959294;28;20505;-86
2022/06/25 09:19:39;;;;;;;13.52;11.98;;;;;;;30.89;35.83;100951.31;4961225;28;20023;-85
2022/06/25 09:22:12;;;;;;;17.00;11.82;;;;;;;31.16;35.54;100952.19;4976522;28;20059;-85
2022/06/25 09:24:44;;;;;;;13.90;11.45;;;;;;;31.37;35.05;100959.28;4975360;28;20396;-85
2022/06/25 09:27:09;;;;;;;16.75;11.77;;;;;;;31.53;34.57;100974.09;4992836;28;20033;-85
2022/06/25 09:29:45;;;;;;;13.13;10.98;;;;;;;31.57;34.80;100976.19;4959302;28;20035;-85
2022/06/25 09:32:11;;;;;;;14.32;11.00;;;;;;;31.55;34.73;100967.50;4960340;28;20093;-85
2022/06/25 09:34:37;;;;;;;12.68;11.00;;;;;;;31.46;34.84;100936.66;4959553;28;20472;-85
2022/06/25 09:37:32;;;;;;;11.48;10.27;;;;;;;31.90;33.61;100970.84;4959437;28;20026;-85
2022/06/25 09:39:57;;;;;;;11.25;10.05;;;;;;;31.85;33.92;100941.22;4958821;28;20040;-86
2022/06/25 09:42:31;;;;;;;11.45;10.15;;;;;;;31.77;33.80;100943.31;4975470;28;20038;-85
2022/06/25 09:45:05;;;;;;;12.18;10.88;;;;;;;31.63;35.76;100953.13;4974950;28;20031;-85
2022/06/25 09:47:30;;;;;;;12.95;10.23;;;;;;;31.54;34.94;100957.03;4974560;28;20446;-85
2022/06/25 09:50:07;;;;;;;12.00;9.93;;;;;;;31.79;34.71;100957.28;4974722;28;20030;-84
2022/06/25 09:52:33;;;;;;;13.02;9.98;;;;;;;32.04;33.71;100941.41;4959254;28;20029;-85
2022/06/25 09:55:00;;;;;;;11.88;9.95;;;;;;;32.32;33.48;100954.56;4943097;28;20498;-85
2022/06/25 09:57:26;;;;;;;10.63;9.60;;;;;;;32.41;32.98;100950.63;4959086;28;20118;-84
2022/06/25 09:59:52;;;;;;;11.85;10.10;;;;;;;32.46;33.25;100948.16;4974426;28;20435;-84
2022/06/25 10:02:17;;;;;;;12.05;10.10;;;;;;;32.42;32.88;100942.38;4958637;28;20076;-85
2022/06/25 10:04:46;;;;;;;11.38;10.10;;;;;;;32.37;33.01;100933.34;4958893;28;20065;-85
2022/06/25 10:07:11;;;;;;;11.90;9.88;;;;;;;32.63;32.87;100935.91;4958817;28;20069;-85
2022/06/25 10:09:39;;;;;;;12.05;9.95;;;;;;;32.64;32.88;100937.56;4942638;28;20504;-85
2022/06/25 10:12:05;;;;;;;12.18;9.38;;;;;;;32.68;33.72;100932.59;4958518;28;20065;-84
2022/06/25 10:14:30;;;;;;;16.52;10.20;;;;;;;32.81;33.05;100940.56;4974758;28;20054;-85
2022/06/25 10:16:56;;;;;;;10.82;9.70;;;;;;;32.82;32.97;100939.53;4942438;28;20023;-84
2022/06/25 10:19:22;;;;;;;13.07;9.38;;;;;;;32.44;32.45;100907.34;4958646;28;20030;-85
2022/06/25 10:21:47;;;;;;;13.07;9.70;;;;;;;32.72;33.55;100929.28;4958633;28;20027;-85
2022/06/25 10:24:15;;;;;;;10.68;9.07;;;;;;;33.05;33.41;100931.00;4958545;28;20097;-85
2022/06/25 10:26:40;;;;;;;11.25;9.98;;;;;;;33.30;33.35;100921.13;4942950;28;20038;-86
2022/06/25 10:29:25;;;;;;;10.30;9.40;;;;;;;33.53;33.30;100917.91;4958284;28;20530;-85
2022/06/25 10:31:51;;;;;;;11.05;9.02;;;;;;;33.67;32.00;100914.06;4974709;28;20038;-85
2022/06/25 10:34:16;;;;;;;14.18;9.30;;;;;;;33.81;31.60;100904.03;4958264;28;20038;-85
2022/06/25 10:36:43;;;;;;;11.50;9.88;;;;;;;33.78;32.31;100904.47;4958125;28;20484;-84
2022/06/25 10:39:33;;;;;;;10.75;9.40;;;;;;;33.62;31.42;100907.72;4974817;28;20065;-85
2022/06/25 10:45:04;;;;;;;10.68;9.48;;;;;;;33.40;32.63;100907.28;4991374;28;20038;-85
2022/06/25 10:47:39;;;;;;;9.88;8.98;;;;;;;33.47;30.98;100905.38;4991622;28;20037;-85
2022/06/25 10:50:23;;;;;;;10.38;8.25;;;;;;;33.53;31.84;100882.19;4991647;28;20029;-84
2022/06/25 10:53:03;;;;;;;11.77;8.82;;;;;;;33.85;31.69;100897.19;4974168;28;20492;-85
2022/06/25 10:55:48;;;;;;;10.98;9.23;;;;;;;33.83;31.07;100896.59;4991564;28;20034;-85
2022/06/25 10:58:22;;;;;;;9.82;8.50;;;;;;;33.89;30.66;100890.34;4975503;28;20026;-84
2022/06/25 11:00:51;;;;;;;9.05;8.00;;;;;;;33.86;30.98;100868.50;4974064;28;20034;-85
2022/06/25 11:03:37;;;;;;;9.23;8.30;;;;;;;34.33;30.72;100880.38;4973949;28;20081;-85
2022/06/25 11:06:33;;;;;;;9.13;7.90;;;;;;;34.28;29.60;100879.41;4976982;28;20097;-85
2022/06/25 11:09:13;;;;;;;10.20;8.30;;;;;;;34.29;29.77;100878.34;4959753;28;20034;-85
2022/06/25 11:11:39;;;;;;;11.65;8.48;;;;;;;34.35;29.26;100877.47;4958012;28;20046;-85
2022/06/25 11:14:12;;;;;;;9.98;8.38;;;;;;;34.39;29.42;100868.75;4957966;28;20022;-85
2022/06/25 11:16:38;;;;;;;9.52;8.10;;;;;;;34.24;29.42;100871.00;4974035;28;20117;-85
2022/06/25 11:19:03;;;;;;;10.25;7.90;;;;;;;34.05;29.19;100872.03;4958139;28;20458;-85
2022/06/25 11:21:42;;;;;;;9.90;8.13;;;;;;;33.84;29.34;100860.66;4957761;28;20038;-85
2022/06/25 11:24:09;;;;;;;11.98;8.30;;;;;;;33.97;29.05;100865.09;4957608;28;20040;-84
2022/06/25 11:29:23;;;;;;;9.80;8.60;;;;;;;33.93;28.43;100837.88;4962611;28;20044;-85
2022/06/25 11:31:50;;;;;;;9.40;8.10;;;;;;;33.70;27.46;100848.41;4973559;28;20491;-86
2022/06/25 11:34:19;;;;;;;11.02;8.00;;;;;;;33.51;27.88;100844.88;4957977;28;20482;-85
2022/06/25 11:36:54;;;;;;;11.40;8.35;;;;;;;33.71;27.83;100819.72;4958297;28;20061;-85
2022/06/25 11:39:19;;;;;;;14.50;8.07;;;;;;;33.93;29.14;100829.84;4942790;28;20031;-86